sensor_id;sensor_type;location;lat;lon;timestamp;temperature;humidity
9544;DHT22;30418;51.45933468;7.33152330;2022-12-20T00:01:55;10.70;73.40
9544;DHT22;30418;51.45933468;7.33152330;2022-12-20T00:04:23;10.70;73.40
9544;DHT22;30418;51.45933468;7.33152330;2022-12-20T00:06:52;10.70;73.30
9544;DHT22;30418;51.45933468;7.33152330;2022-12-20T00:09:20;10.70;73.30
9544;DHT22;30418;51.45933468;7.33152330;2022-12-20T00:11:52;10.70;73.30
9544;DHT22;30418;51.45933468;7.33152330;2022-12-20T00:14:21;10.70;73.30
9544;DHT22;30418;51.45933468;7.33152330;2022-12-20T00:16:50;10.80;73.30
9544;DHT22;30418;51.45933468;7.33152330;2022-12-20T00:19:19;10.80;73.30
9544;DHT22;30418;51.45933468;7.33152330;2022-12-20T00:21:47;10.80;73.30
9544;DHT22;30418;51.45933468;7.33152330;2022-12-20T00:24:16;10.80;73.30
9544;DHT22;30418;51.45933468;7.33152330;2022-12-20T00:26:53;10.80;73.30
9544;DHT22;30418;51.45933468;7.33152330;2022-12-20T00:29:22;10.80;73.30
9544;DHT22;30418;51.45933468;7.33152330;2022-12-20T00:31:50;10.80;73.20
9544;DHT22;30418;51.45933468;7.33152330;2022-12-20T00:34:19;10.80;73.20
9544;DHT22;30418;51.45933468;7.33152330;2022-12-20T00:36:48;10.80;73.20
9544;DHT22;30418;51.45933468;7.33152330;2022-12-20T00:39:16;10.80;73.20
9544;DHT22;30418;51.45933468;7.33152330;2022-12-20T00:41:45;10.90;74.10
9544;DHT22;30418;51.45933468;7.33152330;2022-12-20T00:44:15;10.90;73.20
9544;DHT22;30418;51.45933468;7.33152330;2022-12-20T00:46:43;10.90;73.30
9544;DHT22;30418;51.45933468;7.33152330;2022-12-20T00:49:12;10.90;73.20
9544;DHT22;30418;51.45933468;7.33152330;2022-12-20T00:51:42;10.90;73.20
9544;DHT22;30418;51.45933468;7.33152330;2022-12-20T00:54:11;10.90;73.20
9544;DHT22;30418;51.45933468;7.33152330;2022-12-20T00:56:39;10.90;73.10
9544;DHT22;30418;51.45933468;7.33152330;2022-12-20T00:59:08;10.90;73.10
9544;DHT22;30418;51.45933468;7.33152330;2022-12-20T01:01:38;10.90;73.10
9544;DHT22;30418;51.45933468;7.33152330;2022-12-20T01:04:07;11.00;73.20
9544;DHT22;30418;51.45933468;7.33152330;2022-12-20T01:06:36;10.90;73.10
9544;DHT22;30418;51.45933468;7.33152330;2022-12-20T01:09:05;11.00;73.20
9544;DHT22;30418;51.45933468;7.33152330;2022-12-20T01:11:36;11.00;73.20
9544;DHT22;30418;51.45933468;7.33152330;2022-12-20T01:14:07;11.00;73.20
9544;DHT22;30418;51.45933468;7.33152330;2022-12-20T01:16:41;11.00;73.20
9544;DHT22;30418;51.45933468;7.33152330;2022-12-20T01:19:15;11.00;73.20
9544;DHT22;30418;51.45933468;7.33152330;2022-12-20T01:21:45;11.00;73.20
9544;DHT22;30418;51.45933468;7.33152330;2022-12-20T01:24:15;11.00;73.20
9544;DHT22;30418;51.45933468;7.33152330;2022-12-20T01:26:45;11.00;73.20
9544;DHT22;30418;51.45933468;7.33152330;2022-12-20T01:29:14;11.00;73.20
9544;DHT22;30418;51.45933468;7.33152330;2022-12-20T01:31:45;11.10;73.30
9544;DHT22;30418;51.45933468;7.33152330;2022-12-20T01:34:14;11.00;73.20
9544;DHT22;30418;51.45933468;7.33152330;2022-12-20T01:36:43;11.00;73.20
9544;DHT22;30418;51.45933468;7.33152330;2022-12-20T01:39:14;11.10;73.30
9544;DHT22;30418;51.45933468;7.33152330;2022-12-20T01:41:44;11.10;73.30
9544;DHT22;30418;51.45933468;7.33152330;2022-12-20T01:44:52;11.10;73.30
9544;DHT22;30418;51.45933468;7.33152330;2022-12-20T01:47:25;11.10;73.40
9544;DHT22;30418;51.45933468;7.33152330;2022-12-20T01:49:55;11.10;73.30
9544;DHT22;30418;51.45933468;7.33152330;2022-12-20T01:52:28;11.20;73.50
9544;DHT22;30418;51.45933468;7.33152330;2022-12-20T01:55:03;11.20;73.50
9544;DHT22;30418;51.45933468;7.33152330;2022-12-20T01:57:38;11.10;73.40
9544;DHT22;30418;51.45933468;7.33152330;2022-12-20T02:00:10;11.20;73.40
9544;DHT22;30418;51.45933468;7.33152330;2022-12-20T02:02:41;11.20;73.40
9544;DHT22;30418;51.45933468;7.33152330;2022-12-20T02:05:12;11.20;73.40
9544;DHT22;30418;51.45933468;7.33152330;2022-12-20T02:07:45;11.20;73.40
9544;DHT22;30418;51.45933468;7.33152330;2022-12-20T02:10:18;11.20;73.40
9544;DHT22;30418;51.45933468;7.33152330;2022-12-20T02:12:50;11.20;73.40
9544;DHT22;30418;51.45933468;7.33152330;2022-12-20T02:15:31;11.20;73.40
9544;DHT22;30418;51.45933468;7.33152330;2022-12-20T02:18:24;11.20;73.40
9544;DHT22;30418;51.45933468;7.33152330;2022-12-20T02:21:16;11.20;73.40
9544;DHT22;30418;51.45933468;7.33152330;2022-12-20T02:27:46;11.20;73.40
9544;DHT22;30418;51.45933468;7.33152330;2022-12-20T02:30:20;11.20;73.40
9544;DHT22;30418;51.45933468;7.33152330;2022-12-20T02:32:57;11.20;73.40
9544;DHT22;30418;51.45933468;7.33152330;2022-12-20T02:35:29;11.20;73.40
9544;DHT22;30418;51.45933468;7.33152330;2022-12-20T02:38:00;11.20;73.40
9544;DHT22;30418;51.45933468;7.33152330;2022-12-20T02:40:33;11.20;73.40
9544;DHT22;30418;51.45933468;7.33152330;2022-12-20T02:43:09;11.20;73.40
9544;DHT22;30418;51.45933468;7.33152330;2022-12-20T02:46:01;11.20;73.40
9544;DHT22;30418;51.45933468;7.33152330;2022-12-20T02:48:31;11.20;73.40
9544;DHT22;30418;51.45933468;7.33152330;2022-12-20T02:51:01;11.20;73.40
9544;DHT22;30418;51.45933468;7.33152330;2022-12-20T02:53:31;11.20;73.40
9544;DHT22;30418;51.45933468;7.33152330;2022-12-20T02:56:04;11.20;73.40
9544;DHT22;30418;51.45933468;7.33152330;2022-12-20T02:58:42;11.20;73.40
9544;DHT22;30418;51.45933468;7.33152330;2022-12-20T03:01:21;11.20;73.40
9544;DHT22;30418;51.45933468;7.33152330;2022-12-20T03:03:53;11.20;73.50
9544;DHT22;30418;51.45933468;7.33152330;2022-12-20T03:06:22;11.20;73.40
9544;DHT22;30418;51.45933468;7.33152330;2022-12-20T03:08:51;11.20;73.40
9544;DHT22;30418;51.45933468;7.33152330;2022-12-20T03:11:23;11.20;73.50
9544;DHT22;30418;51.45933468;7.33152330;2022-12-20T03:13:52;11.20;73.50
9544;DHT22;30418;51.45933468;7.33152330;2022-12-20T03:16:22;11.20;73.50
9544;DHT22;30418;51.45933468;7.33152330;2022-12-20T03:18:51;11.20;73.50
9544;DHT22;30418;51.45933468;7.33152330;2022-12-20T03:21:19;11.20;73.50
9544;DHT22;30418;51.45933468;7.33152330;2022-12-20T03:23:48;11.20;73.50
9544;DHT22;30418;51.45933468;7.33152330;2022-12-20T03:26:17;11.20;73.50
9544;DHT22;30418;51.45933468;7.33152330;2022-12-20T03:28:52;11.20;73.60
9544;DHT22;30418;51.45933468;7.33152330;2022-12-20T03:31:25;11.20;73.50
9544;DHT22;30418;51.45933468;7.33152330;2022-12-20T03:33:54;11.20;73.50
9544;DHT22;30418;51.45933468;7.33152330;2022-12-20T03:36:23;11.20;73.50
9544;DHT22;30418;51.45933468;7.33152330;2022-12-20T03:38:57;11.20;73.60
9544;DHT22;30418;51.45933468;7.33152330;2022-12-20T03:41:27;11.20;73.60
9544;DHT22;30418;51.45933468;7.33152330;2022-12-20T03:43:56;11.20;73.60
9544;DHT22;30418;51.45933468;7.33152330;2022-12-20T03:46:27;11.20;73.70
9544;DHT22;30418;51.45933468;7.33152330;2022-12-20T03:48:56;11.20;73.70
9544;DHT22;30418;51.45933468;7.33152330;2022-12-20T03:51:26;11.20;73.70
9544;DHT22;30418;51.45933468;7.33152330;2022-12-20T03:53:54;11.20;73.70
9544;DHT22;30418;51.45933468;7.33152330;2022-12-20T03:56:34;11.20;73.70
9544;DHT22;30418;51.45933468;7.33152330;2022-12-20T03:59:03;11.20;73.90
9544;DHT22;30418;51.45933468;7.33152330;2022-12-20T04:01:33;11.20;73.90
9544;DHT22;30418;51.45933468;7.33152330;2022-12-20T04:04:06;11.20;73.90
9544;DHT22;30418;51.45933468;7.33152330;2022-12-20T04:06:34;11.20;73.90
9544;DHT22;30418;51.45933468;7.33152330;2022-12-20T04:09:03;11.20;74.00
9544;DHT22;30418;51.45933468;7.33152330;2022-12-20T04:11:39;11.20;73.90
9544;DHT22;30418;51.45933468;7.33152330;2022-12-20T04:14:12;11.20;74.00
9544;DHT22;30418;51.45933468;7.33152330;2022-12-20T04:16:42;11.20;74.00
9544;DHT22;30418;51.45933468;7.33152330;2022-12-20T04:19:10;11.20;74.10
9544;DHT22;30418;51.45933468;7.33152330;2022-12-20T04:21:43;11.20;74.10
9544;DHT22;30418;51.45933468;7.33152330;2022-12-20T04:24:13;11.20;74.20
9544;DHT22;30418;51.45933468;7.33152330;2022-12-20T04:27:09;11.20;74.20
9544;DHT22;30418;51.45933468;7.33152330;2022-12-20T04:29:38;11.20;74.20
9544;DHT22;30418;51.45933468;7.33152330;2022-12-20T04:32:12;11.20;74.30
9544;DHT22;30418;51.45933468;7.33152330;2022-12-20T04:34:41;11.20;74.40
9544;DHT22;30418;51.45933468;7.33152330;2022-12-20T04:37:09;11.20;74.40
9544;DHT22;30418;51.45933468;7.33152330;2022-12-20T04:39:46;11.20;74.50
9544;DHT22;30418;51.45933468;7.33152330;2022-12-20T04:42:18;11.20;74.50
9544;DHT22;30418;51.45933468;7.33152330;2022-12-20T04:44:48;11.10;74.40
9544;DHT22;30418;51.45933468;7.33152330;2022-12-20T04:47:24;11.20;74.60
9544;DHT22;30418;51.45933468;7.33152330;2022-12-20T04:49:54;11.20;74.80
9544;DHT22;30418;51.45933468;7.33152330;2022-12-20T04:52:22;11.20;74.70
9544;DHT22;30418;51.45933468;7.33152330;2022-12-20T04:55:15;11.20;74.70
9544;DHT22;30418;51.45933468;7.33152330;2022-12-20T04:57:44;11.20;74.70
9544;DHT22;30418;51.45933468;7.33152330;2022-12-20T05:00:13;11.20;74.90
9544;DHT22;30418;51.45933468;7.33152330;2022-12-20T05:02:49;11.20;75.80
9544;DHT22;30418;51.45933468;7.33152330;2022-12-20T05:05:20;11.20;75.00
9544;DHT22;30418;51.45933468;7.33152330;2022-12-20T05:07:52;11.20;75.00
9544;DHT22;30418;51.45933468;7.33152330;2022-12-20T05:10:22;11.20;75.10
9544;DHT22;30418;51.45933468;7.33152330;2022-12-20T05:12:52;11.20;75.20
9544;DHT22;30418;51.45933468;7.33152330;2022-12-20T05:15:31;11.20;75.20
9544;DHT22;30418;51.45933468;7.33152330;2022-12-20T05:18:03;11.20;75.20
9544;DHT22;30418;51.45933468;7.33152330;2022-12-20T05:20:41;11.20;75.30
9544;DHT22;30418;51.45933468;7.33152330;2022-12-20T05:23:10;11.10;75.10
9544;DHT22;30418;51.45933468;7.33152330;2022-12-20T05:26:08;11.20;75.20
9544;DHT22;30418;51.45933468;7.33152330;2022-12-20T05:28:47;11.10;75.10
9544;DHT22;30418;51.45933468;7.33152330;2022-12-20T05:31:15;11.10;75.10
9544;DHT22;30418;51.45933468;7.33152330;2022-12-20T05:33:45;11.20;75.30
9544;DHT22;30418;51.45933468;7.33152330;2022-12-20T05:36:15;11.10;75.30
9544;DHT22;30418;51.45933468;7.33152330;2022-12-20T05:38:44;11.10;75.30
9544;DHT22;30418;51.45933468;7.33152330;2022-12-20T05:41:16;11.10;76.20
9544;DHT22;30418;51.45933468;7.33152330;2022-12-20T05:43:48;11.10;75.30
9544;DHT22;30418;51.45933468;7.33152330;2022-12-20T05:46:17;11.10;75.40
9544;DHT22;30418;51.45933468;7.33152330;2022-12-20T05:48:54;11.10;75.40
9544;DHT22;30418;51.45933468;7.33152330;2022-12-20T05:51:23;11.10;75.40
9544;DHT22;30418;51.45933468;7.33152330;2022-12-20T05:53:56;11.10;75.40
9544;DHT22;30418;51.45933468;7.33152330;2022-12-20T05:56:47;11.10;75.40
9544;DHT22;30418;51.45933468;7.33152330;2022-12-20T05:59:22;11.10;75.40
9544;DHT22;30418;51.45933468;7.33152330;2022-12-20T06:01:51;11.10;75.40
9544;DHT22;30418;51.45933468;7.33152330;2022-12-20T06:04:24;11.10;75.40
9544;DHT22;30418;51.45933468;7.33152330;2022-12-20T06:06:53;11.10;75.40
9544;DHT22;30418;51.45933468;7.33152330;2022-12-20T06:09:22;11.10;75.40
9544;DHT22;30418;51.45933468;7.33152330;2022-12-20T06:11:59;11.10;75.40
9544;DHT22;30418;51.45933468;7.33152330;2022-12-20T06:14:28;11.10;76.20
9544;DHT22;30418;51.45933468;7.33152330;2022-12-20T06:16:57;11.20;75.50
9544;DHT22;30418;51.45933468;7.33152330;2022-12-20T06:19:27;11.10;75.40
9544;DHT22;30418;51.45933468;7.33152330;2022-12-20T06:21:57;11.10;75.40
9544;DHT22;30418;51.45933468;7.33152330;2022-12-20T06:24:37;11.10;75.40
9544;DHT22;30418;51.45933468;7.33152330;2022-12-20T06:27:14;11.20;75.50
9544;DHT22;30418;51.45933468;7.33152330;2022-12-20T06:29:47;11.20;75.50
9544;DHT22;30418;51.45933468;7.33152330;2022-12-20T06:32:21;11.20;75.50
9544;DHT22;30418;51.45933468;7.33152330;2022-12-20T06:34:52;11.20;75.50
9544;DHT22;30418;51.45933468;7.33152330;2022-12-20T06:37:20;11.20;75.50
9544;DHT22;30418;51.45933468;7.33152330;2022-12-20T06:39:49;11.20;75.50
9544;DHT22;30418;51.45933468;7.33152330;2022-12-20T06:42:19;11.20;75.50
9544;DHT22;30418;51.45933468;7.33152330;2022-12-20T06:44:48;11.20;75.50
9544;DHT22;30418;51.45933468;7.33152330;2022-12-20T06:47:16;11.20;75.50
9544;DHT22;30418;51.45933468;7.33152330;2022-12-20T06:49:45;11.20;76.30
9544;DHT22;30418;51.45933468;7.33152330;2022-12-20T06:52:21;11.20;75.50
9544;DHT22;30418;51.45933468;7.33152330;2022-12-20T06:54:53;11.20;75.50
9544;DHT22;30418;51.45933468;7.33152330;2022-12-20T06:57:22;11.20;75.50
9544;DHT22;30418;51.45933468;7.33152330;2022-12-20T06:59:51;11.20;75.50
9544;DHT22;30418;51.45933468;7.33152330;2022-12-20T07:02:20;11.30;75.60
9544;DHT22;30418;51.45933468;7.33152330;2022-12-20T07:04:53;11.30;75.60
9544;DHT22;30418;51.45933468;7.33152330;2022-12-20T07:07:23;11.30;75.60
9544;DHT22;30418;51.45933468;7.33152330;2022-12-20T07:09:52;11.30;75.60
9544;DHT22;30418;51.45933468;7.33152330;2022-12-20T07:12:21;11.30;75.50
9544;DHT22;30418;51.45933468;7.33152330;2022-12-20T07:14:50;11.30;75.60
9544;DHT22;30418;51.45933468;7.33152330;2022-12-20T07:17:18;11.30;75.50
9544;DHT22;30418;51.45933468;7.33152330;2022-12-20T07:19:47;11.30;75.60
9544;DHT22;30418;51.45933468;7.33152330;2022-12-20T07:22:17;11.30;75.50
9544;DHT22;30418;51.45933468;7.33152330;2022-12-20T07:24:47;11.30;75.50
9544;DHT22;30418;51.45933468;7.33152330;2022-12-20T07:27:16;11.30;75.50
9544;DHT22;30418;51.45933468;7.33152330;2022-12-20T07:29:44;11.30;75.40
9544;DHT22;30418;51.45933468;7.33152330;2022-12-20T07:32:13;11.40;75.50
9544;DHT22;30418;51.45933468;7.33152330;2022-12-20T07:34:42;11.40;75.50
9544;DHT22;30418;51.45933468;7.33152330;2022-12-20T07:37:11;11.40;75.50
9544;DHT22;30418;51.45933468;7.33152330;2022-12-20T07:39:40;11.40;75.50
9544;DHT22;30418;51.45933468;7.33152330;2022-12-20T07:42:11;11.40;75.50
9544;DHT22;30418;51.45933468;7.33152330;2022-12-20T07:44:41;11.40;75.40
9544;DHT22;30418;51.45933468;7.33152330;2022-12-20T07:47:10;11.50;76.20
9544;DHT22;30418;51.45933468;7.33152330;2022-12-20T07:49:38;11.40;75.20
9544;DHT22;30418;51.45933468;7.33152330;2022-12-20T07:52:07;11.40;75.20
9544;DHT22;30418;51.45933468;7.33152330;2022-12-20T07:54:40;11.50;75.40
9544;DHT22;30418;51.45933468;7.33152330;2022-12-20T07:57:16;11.50;75.30
9544;DHT22;30418;51.45933468;7.33152330;2022-12-20T07:59:50;11.50;75.30
9544;DHT22;30418;51.45933468;7.33152330;2022-12-20T08:02:25;11.50;75.30
9544;DHT22;30418;51.45933468;7.33152330;2022-12-20T08:04:55;11.50;75.30
9544;DHT22;30418;51.45933468;7.33152330;2022-12-20T08:07:26;11.50;75.20
9544;DHT22;30418;51.45933468;7.33152330;2022-12-20T08:09:56;11.50;75.20
9544;DHT22;30418;51.45933468;7.33152330;2022-12-20T08:12:28;11.50;75.20
9544;DHT22;30418;51.45933468;7.33152330;2022-12-20T08:14:57;11.50;75.10
9544;DHT22;30418;51.45933468;7.33152330;2022-12-20T08:17:26;11.50;75.10
9544;DHT22;30418;51.45933468;7.33152330;2022-12-20T08:19:54;11.60;75.10
9544;DHT22;30418;51.45933468;7.33152330;2022-12-20T08:22:23;11.60;75.10
9544;DHT22;30418;51.45933468;7.33152330;2022-12-20T08:24:52;11.60;75.00
9544;DHT22;30418;51.45933468;7.33152330;2022-12-20T08:27:20;11.60;75.00
9544;DHT22;30418;51.45933468;7.33152330;2022-12-20T08:29:50;11.60;75.00
9544;DHT22;30418;51.45933468;7.33152330;2022-12-20T08:32:19;11.60;75.00
9544;DHT22;30418;51.45933468;7.33152330;2022-12-20T08:34:47;11.60;74.90
9544;DHT22;30418;51.45933468;7.33152330;2022-12-20T08:37:16;11.60;74.80
9544;DHT22;30418;51.45933468;7.33152330;2022-12-20T08:39:45;11.60;74.70
9544;DHT22;30418;51.45933468;7.33152330;2022-12-20T08:42:13;11.70;74.80
9544;DHT22;30418;51.45933468;7.33152330;2022-12-20T08:44:41;11.60;74.60
9544;DHT22;30418;51.45933468;7.33152330;2022-12-20T08:47:12;11.70;74.70
9544;DHT22;30418;51.45933468;7.33152330;2022-12-20T08:49:41;11.60;74.60
9544;DHT22;30418;51.45933468;7.33152330;2022-12-20T08:52:14;11.60;74.70
9544;DHT22;30418;51.45933468;7.33152330;2022-12-20T08:54:42;11.60;74.70
9544;DHT22;30418;51.45933468;7.33152330;2022-12-20T08:57:11;11.70;74.80
9544;DHT22;30418;51.45933468;7.33152330;2022-12-20T08:59:39;11.70;74.80
9544;DHT22;30418;51.45933468;7.33152330;2022-12-20T09:02:08;11.70;74.80
9544;DHT22;30418;51.45933468;7.33152330;2022-12-20T09:04:38;11.70;74.80
9544;DHT22;30418;51.45933468;7.33152330;2022-12-20T09:07:07;11.70;74.80
9544;DHT22;30418;51.45933468;7.33152330;2022-12-20T09:09:35;11.70;74.80
9544;DHT22;30418;51.45933468;7.33152330;2022-12-20T09:12:04;11.70;74.70
9544;DHT22;30418;51.45933468;7.33152330;2022-12-20T09:14:33;11.70;74.80
9544;DHT22;30418;51.45933468;7.33152330;2022-12-20T09:17:02;11.80;74.90
9544;DHT22;30418;51.45933468;7.33152330;2022-12-20T09:19:30;11.80;74.80
9544;DHT22;30418;51.45933468;7.33152330;2022-12-20T09:22:00;11.80;74.80
9544;DHT22;30418;51.45933468;7.33152330;2022-12-20T09:24:30;11.80;74.70
9544;DHT22;30418;51.45933468;7.33152330;2022-12-20T09:26:58;11.80;74.70
9544;DHT22;30418;51.45933468;7.33152330;2022-12-20T09:29:27;11.80;74.70
9544;DHT22;30418;51.45933468;7.33152330;2022-12-20T09:32:01;11.90;74.80
9544;DHT22;30418;51.45933468;7.33152330;2022-12-20T09:34:30;11.90;74.70
9544;DHT22;30418;51.45933468;7.33152330;2022-12-20T09:37:00;11.90;74.60
9544;DHT22;30418;51.45933468;7.33152330;2022-12-20T09:39:29;11.90;74.50
9544;DHT22;30418;51.45933468;7.33152330;2022-12-20T09:41:58;11.90;74.50
9544;DHT22;30418;51.45933468;7.33152330;2022-12-20T09:44:29;11.90;74.50
9544;DHT22;30418;51.45933468;7.33152330;2022-12-20T09:47:03;12.00;74.60
9544;DHT22;30418;51.45933468;7.33152330;2022-12-20T09:49:40;12.00;74.50
9544;DHT22;30418;51.45933468;7.33152330;2022-12-20T09:52:31;12.00;74.40
9544;DHT22;30418;51.45933468;7.33152330;2022-12-20T09:55:18;12.00;74.50
9544;DHT22;30418;51.45933468;7.33152330;2022-12-20T09:58:02;12.00;74.50
9544;DHT22;30418;51.45933468;7.33152330;2022-12-20T10:00:44;12.00;74.50
9544;DHT22;30418;51.45933468;7.33152330;2022-12-20T10:03:22;12.00;74.50
9544;DHT22;30418;51.45933468;7.33152330;2022-12-20T10:05:54;12.00;74.40
9544;DHT22;30418;51.45933468;7.33152330;2022-12-20T10:08:36;12.00;74.50
9544;DHT22;30418;51.45933468;7.33152330;2022-12-20T10:11:21;12.00;74.60
9544;DHT22;30418;51.45933468;7.33152330;2022-12-20T10:14:15;12.00;74.50
9544;DHT22;30418;51.45933468;7.33152330;2022-12-20T10:16:57;12.00;74.60
9544;DHT22;30418;51.45933468;7.33152330;2022-12-20T10:19:39;12.10;74.60
9544;DHT22;30418;51.45933468;7.33152330;2022-12-20T10:22:22;12.00;74.60
9544;DHT22;30418;51.45933468;7.33152330;2022-12-20T10:25:00;12.00;74.60
9544;DHT22;30418;51.45933468;7.33152330;2022-12-20T10:27:34;12.10;74.80
9544;DHT22;30418;51.45933468;7.33152330;2022-12-20T10:30:11;12.10;74.80
9544;DHT22;30418;51.45933468;7.33152330;2022-12-20T10:32:44;12.10;74.80
9544;DHT22;30418;51.45933468;7.33152330;2022-12-20T10:35:21;12.20;75.00
9544;DHT22;30418;51.45933468;7.33152330;2022-12-20T10:38:00;12.20;75.00
9544;DHT22;30418;51.45933468;7.33152330;2022-12-20T10:40:37;12.20;75.00
9544;DHT22;30418;51.45933468;7.33152330;2022-12-20T10:43:27;12.20;75.00
9544;DHT22;30418;51.45933468;7.33152330;2022-12-20T10:46:07;12.20;74.90
9544;DHT22;30418;51.45933468;7.33152330;2022-12-20T10:48:37;12.30;75.00
9544;DHT22;30418;51.45933468;7.33152330;2022-12-20T10:51:14;12.30;74.90
9544;DHT22;30418;51.45933468;7.33152330;2022-12-20T10:53:53;12.30;74.90
9544;DHT22;30418;51.45933468;7.33152330;2022-12-20T10:56:26;12.30;74.90
9544;DHT22;30418;51.45933468;7.33152330;2022-12-20T10:58:57;12.30;75.00
9544;DHT22;30418;51.45933468;7.33152330;2022-12-20T11:01:29;12.30;75.00
9544;DHT22;30418;51.45933468;7.33152330;2022-12-20T11:04:01;12.30;75.10
9544;DHT22;30418;51.45933468;7.33152330;2022-12-20T11:06:41;12.40;75.20
9544;DHT22;30418;51.45933468;7.33152330;2022-12-20T11:09:24;12.40;75.20
9544;DHT22;30418;51.45933468;7.33152330;2022-12-20T11:12:03;12.40;75.10
9544;DHT22;30418;51.45933468;7.33152330;2022-12-20T11:14:34;12.40;75.10
9544;DHT22;30418;51.45933468;7.33152330;2022-12-20T11:17:20;12.50;75.20
9544;DHT22;30418;51.45933468;7.33152330;2022-12-20T11:20:19;12.50;75.20
9544;DHT22;30418;51.45933468;7.33152330;2022-12-20T11:23:06;12.50;75.10
9544;DHT22;30418;51.45933468;7.33152330;2022-12-20T11:25:49;12.60;75.20
9544;DHT22;30418;51.45933468;7.33152330;2022-12-20T11:28:49;12.60;75.20
9544;DHT22;30418;51.45933468;7.33152330;2022-12-20T11:31:31;12.60;75.20
9544;DHT22;30418;51.45933468;7.33152330;2022-12-20T11:34:16;12.70;75.20
9544;DHT22;30418;51.45933468;7.33152330;2022-12-20T11:37:08;12.70;75.10
9544;DHT22;30418;51.45933468;7.33152330;2022-12-20T11:40:05;12.80;75.00
9544;DHT22;30418;51.45933468;7.33152330;2022-12-20T11:42:51;12.70;74.80
9544;DHT22;30418;51.45933468;7.33152330;2022-12-20T11:45:32;12.80;74.90
9544;DHT22;30418;51.45933468;7.33152330;2022-12-20T11:48:25;12.80;74.70
9544;DHT22;30418;51.45933468;7.33152330;2022-12-20T11:51:03;12.80;74.60
9544;DHT22;30418;51.45933468;7.33152330;2022-12-20T11:53:44;12.80;74.50
9544;DHT22;30418;51.45933468;7.33152330;2022-12-20T11:56:21;12.90;74.60
9544;DHT22;30418;51.45933468;7.33152330;2022-12-20T11:58:56;12.80;74.50
9544;DHT22;30418;51.45933468;7.33152330;2022-12-20T12:01:33;12.90;74.50
9544;DHT22;30418;51.45933468;7.33152330;2022-12-20T12:04:11;12.90;74.40
9544;DHT22;30418;51.45933468;7.33152330;2022-12-20T12:06:45;12.90;74.30
9544;DHT22;30418;51.45933468;7.33152330;2022-12-20T12:09:21;12.90;74.30
9544;DHT22;30418;51.45933468;7.33152330;2022-12-20T12:11:55;12.80;74.10
9544;DHT22;30418;51.45933468;7.33152330;2022-12-20T12:14:43;12.90;74.20
9544;DHT22;30418;51.45933468;7.33152330;2022-12-20T12:17:30;12.90;74.30
9544;DHT22;30418;51.45933468;7.33152330;2022-12-20T12:20:17;12.90;74.20
9544;DHT22;30418;51.45933468;7.33152330;2022-12-20T12:22:53;12.90;74.30
9544;DHT22;30418;51.45933468;7.33152330;2022-12-20T12:25:23;12.80;74.10
9544;DHT22;30418;51.45933468;7.33152330;2022-12-20T12:27:53;12.90;74.10
9544;DHT22;30418;51.45933468;7.33152330;2022-12-20T12:30:22;12.90;74.10
9544;DHT22;30418;51.45933468;7.33152330;2022-12-20T12:32:56;12.80;74.00
9544;DHT22;30418;51.45933468;7.33152330;2022-12-20T12:35:59;12.90;74.10
9544;DHT22;30418;51.45933468;7.33152330;2022-12-20T12:39:02;12.80;73.90
9544;DHT22;30418;51.45933468;7.33152330;2022-12-20T12:42:02;12.80;73.90
9544;DHT22;30418;51.45933468;7.33152330;2022-12-20T12:44:42;12.90;74.00
9544;DHT22;30418;51.45933468;7.33152330;2022-12-20T12:47:20;12.80;73.80
9544;DHT22;30418;51.45933468;7.33152330;2022-12-20T12:49:53;12.90;74.00
9544;DHT22;30418;51.45933468;7.33152330;2022-12-20T12:52:28;12.80;73.90
9544;DHT22;30418;51.45933468;7.33152330;2022-12-20T12:55:40;12.80;73.90
9544;DHT22;30418;51.45933468;7.33152330;2022-12-20T12:58:31;12.80;74.10
9544;DHT22;30418;51.45933468;7.33152330;2022-12-20T13:01:03;12.80;74.10
9544;DHT22;30418;51.45933468;7.33152330;2022-12-20T13:03:38;12.80;74.10
9544;DHT22;30418;51.45933468;7.33152330;2022-12-20T13:09:42;12.80;74.30
9544;DHT22;30418;51.45933468;7.33152330;2022-12-20T13:15:48;12.80;74.40
9544;DHT22;30418;51.45933468;7.33152330;2022-12-20T13:18:32;12.80;74.50
9544;DHT22;30418;51.45933468;7.33152330;2022-12-20T13:21:34;12.80;74.30
9544;DHT22;30418;51.45933468;7.33152330;2022-12-20T13:24:38;12.80;74.60
9544;DHT22;30418;51.45933468;7.33152330;2022-12-20T13:27:31;12.80;74.70
9544;DHT22;30418;51.45933468;7.33152330;2022-12-20T13:33:23;12.80;74.80
9544;DHT22;30418;51.45933468;7.33152330;2022-12-20T13:38:59;12.80;74.60
9544;DHT22;30418;51.45933468;7.33152330;2022-12-20T13:41:36;12.90;74.70
9544;DHT22;30418;51.45933468;7.33152330;2022-12-20T13:44:25;12.80;74.80
9544;DHT22;30418;51.45933468;7.33152330;2022-12-20T13:47:05;12.80;75.00
9544;DHT22;30418;51.45933468;7.33152330;2022-12-20T13:49:42;12.80;75.00
9544;DHT22;30418;51.45933468;7.33152330;2022-12-20T13:52:21;12.80;75.00
9544;DHT22;30418;51.45933468;7.33152330;2022-12-20T13:54:54;12.80;75.10
9544;DHT22;30418;51.45933468;7.33152330;2022-12-20T13:57:29;12.80;75.20
9544;DHT22;30418;51.45933468;7.33152330;2022-12-20T14:00:02;12.80;75.30
9544;DHT22;30418;51.45933468;7.33152330;2022-12-20T14:02:39;12.80;75.30
9544;DHT22;30418;51.45933468;7.33152330;2022-12-20T14:05:16;12.80;75.30
9544;DHT22;30418;51.45933468;7.33152330;2022-12-20T14:07:49;12.70;75.40
9544;DHT22;30418;51.45933468;7.33152330;2022-12-20T14:10:23;12.70;75.30
9544;DHT22;30418;51.45933468;7.33152330;2022-12-20T14:12:55;12.70;75.30
9544;DHT22;30418;51.45933468;7.33152330;2022-12-20T14:15:27;12.70;75.30
9544;DHT22;30418;51.45933468;7.33152330;2022-12-20T14:18:03;12.70;75.40
9544;DHT22;30418;51.45933468;7.33152330;2022-12-20T14:20:34;12.70;75.40
9544;DHT22;30418;51.45933468;7.33152330;2022-12-20T14:23:04;12.60;75.30
9544;DHT22;30418;51.45933468;7.33152330;2022-12-20T14:25:37;12.70;75.40
9544;DHT22;30418;51.45933468;7.33152330;2022-12-20T14:28:17;12.70;75.50
9544;DHT22;30418;51.45933468;7.33152330;2022-12-20T14:30:54;12.60;75.90